Terminal Aerodrome Forecast
Issued by NWS Newport/Morehead City, NC

Home | Current Version | Previous Version | Text Only | Print | Product List | Glossary On
Versions: 1 2 3 4 5 6 7 8 9 10 11 12
000
FTUS42 KMHX 280526
TAFEWN
TAF
KEWN 280526Z 2806/2906 00000KT P6SM FEW250
     FM280900 VRB03KT 4SM BR SCT007
     FM281100 VRB04KT 4SM BR BKN007
     FM281300 07005KT P6SM BKN200=

USA.gov is the U.S. government's official web portal to all federal, state and local government web resources and services.